createdAt,value
2018-09-04T00:00:29.434Z,34.80
2018-09-04T00:01:29.373Z,33.90
2018-09-04T00:02:29.312Z,31.70
2018-09-04T00:03:29.251Z,29.80
2018-09-04T00:04:29.191Z,34.60
2018-09-04T00:05:29.130Z,34.20
2018-09-04T00:06:29.071Z,34.40
2018-09-04T00:07:29.012Z,31.60
2018-09-04T00:08:28.950Z,35.30
2018-09-04T00:09:28.889Z,34.20
2018-09-04T00:10:28.828Z,32.80
2018-09-04T00:11:28.772Z,35.20
2018-09-04T00:12:28.708Z,32.70
2018-09-04T00:13:28.648Z,33.80
2018-09-04T00:14:28.589Z,35.60
2018-09-04T00:15:28.531Z,37.10
2018-09-04T00:16:28.466Z,42.90
2018-09-04T00:17:28.405Z,38.90
2018-09-04T00:18:28.347Z,38.30
2018-09-04T00:19:28.286Z,38.10
2018-09-04T00:20:28.227Z,37.20
2018-09-04T00:21:28.164Z,37.30
2018-09-04T00:22:28.107Z,36.90
2018-09-04T00:23:28.044Z,39.40
2018-09-04T00:24:27.990Z,36.90
2018-09-04T00:25:27.922Z,40.70
2018-09-04T00:26:27.867Z,36.80
2018-09-04T00:27:27.802Z,35.40
2018-09-04T00:28:27.743Z,38.60
2018-09-04T00:29:27.682Z,35.80
2018-09-04T00:30:27.620Z,37.60
2018-09-04T00:31:27.558Z,37.60
2018-09-04T00:32:27.500Z,34.80
2018-09-04T00:33:27.439Z,34.00
2018-09-04T00:34:27.442Z,37.70
2018-09-04T00:35:27.326Z,34.90
2018-09-04T00:36:27.260Z,35.40
2018-09-04T00:37:27.196Z,36.20
2018-09-04T00:38:27.135Z,38.00
2018-09-04T00:39:27.076Z,35.80
2018-09-04T00:40:27.016Z,38.10
2018-09-04T00:41:26.959Z,37.20
2018-09-04T00:42:26.894Z,36.20
2018-09-04T00:43:26.835Z,38.20
2018-09-04T00:44:26.774Z,38.00
2018-09-04T00:45:26.712Z,40.30
2018-09-04T00:46:26.654Z,39.40
2018-09-04T00:47:26.593Z,36.00
2018-09-04T00:48:26.531Z,36.00
2018-09-04T00:49:26.470Z,36.90
2018-09-04T00:50:26.411Z,38.70
2018-09-04T00:51:26.350Z,37.80
2018-09-04T00:52:26.291Z,39.10
2018-09-04T00:53:26.240Z,35.90
2018-09-04T00:54:26.168Z,38.60
2018-09-04T00:55:26.107Z,37.60
2018-09-04T00:56:26.051Z,36.80
2018-09-04T00:57:25.988Z,34.70
2018-09-04T00:58:25.926Z,38.70
2018-09-04T00:59:25.867Z,34.00
2018-09-04T01:00:25.809Z,37.00
2018-09-04T01:01:25.746Z,33.70
2018-09-04T01:02:25.688Z,36.50
2018-09-04T01:03:25.623Z,34.30
2018-09-04T01:04:25.567Z,35.00
2018-09-04T01:05:25.504Z,31.90
2018-09-04T01:06:25.447Z,34.10
2018-09-04T01:07:25.382Z,34.80
2018-09-04T01:08:25.323Z,35.30
2018-09-04T01:09:25.317Z,34.50
2018-09-04T01:10:25.199Z,34.00
2018-09-04T01:11:25.143Z,35.00
2018-09-04T01:12:25.081Z,33.60
2018-09-04T01:13:25.031Z,36.40
2018-09-04T01:14:24.957Z,33.90
2018-09-04T01:15:24.896Z,34.40
2018-09-04T01:16:24.839Z,34.40
2018-09-04T01:17:24.776Z,34.20
2018-09-04T01:18:24.717Z,35.30
2018-09-04T01:19:24.658Z,35.60
2018-09-04T01:20:24.596Z,35.30
2018-09-04T01:21:24.538Z,36.70
2018-09-04T01:22:24.514Z,32.90
2018-09-04T01:23:24.415Z,38.00
2018-09-04T01:24:24.355Z,35.80
2018-09-04T01:25:24.293Z,35.50
2018-09-04T01:26:24.234Z,31.80
2018-09-04T01:27:24.171Z,36.00
2018-09-04T01:28:24.115Z,36.40
2018-09-04T01:29:24.050Z,35.00
2018-09-04T01:30:23.993Z,38.40
2018-09-04T01:31:23.930Z,36.80
2018-09-04T01:32:23.872Z,40.10
2018-09-04T01:33:23.809Z,41.50
2018-09-04T01:34:23.750Z,39.20
2018-09-04T01:35:23.689Z,37.50
2018-09-04T01:36:23.628Z,38.90
2018-09-04T01:37:23.568Z,39.50
2018-09-04T01:38:23.507Z,40.30
2018-09-04T01:39:23.447Z,39.80
2018-09-04T01:40:23.386Z,36.10
2018-09-04T01:41:23.324Z,37.20
2018-09-04T01:42:23.261Z,43.50
2018-09-04T01:43:23.205Z,37.10
2018-09-04T01:44:23.143Z,41.90
2018-09-04T01:45:23.083Z,37.90
2018-09-04T01:46:23.023Z,40.80
2018-09-04T01:47:22.962Z,35.80
2018-09-04T01:48:22.902Z,38.60
2018-09-04T01:49:22.843Z,39.90
2018-09-04T01:50:22.781Z,39.60
2018-09-04T01:51:22.721Z,41.00
2018-09-04T01:52:22.660Z,39.50
2018-09-04T01:53:22.599Z,37.50
2018-09-04T01:54:22.539Z,39.70
2018-09-04T01:55:22.479Z,39.40
2018-09-04T01:56:22.416Z,37.80
2018-09-04T01:57:22.355Z,36.20
2018-09-04T01:58:22.301Z,34.90
2018-09-04T01:59:22.234Z,37.30
2018-09-04T02:00:22.177Z,34.10
2018-09-04T02:01:22.114Z,38.60
2018-09-04T02:02:22.055Z,37.40
2018-09-04T02:03:21.992Z,35.60
2018-09-04T02:04:21.935Z,35.50
2018-09-04T02:05:21.874Z,37.80
2018-09-04T02:06:21.812Z,39.70
2018-09-04T02:07:21.750Z,34.90
2018-09-04T02:08:21.695Z,35.00
2018-09-04T02:09:21.632Z,36.70
2018-09-04T02:10:21.570Z,36.70
2018-09-04T02:11:21.510Z,35.70
2018-09-04T02:12:21.450Z,40.20
2018-09-04T02:13:21.388Z,36.50
2018-09-04T02:14:21.328Z,35.70
2018-09-04T02:15:21.267Z,36.60
2018-09-04T02:16:21.208Z,36.60
2018-09-04T02:17:21.145Z,36.30
2018-09-04T02:18:21.086Z,38.90
2018-09-04T02:19:21.024Z,37.80
2018-09-04T02:20:20.964Z,37.40
2018-09-04T02:21:20.903Z,37.40
2018-09-04T02:22:20.844Z,37.00
2018-09-04T02:23:20.783Z,39.60
2018-09-04T02:24:20.740Z,36.00
2018-09-04T02:25:20.665Z,38.50
2018-09-04T02:26:20.633Z,37.60
2018-09-04T02:27:20.555Z,36.30
2018-09-04T02:28:20.480Z,38.30
2018-09-04T02:29:20.420Z,36.30
2018-09-04T02:30:20.359Z,34.20
2018-09-04T02:31:20.297Z,39.00
2018-09-04T02:32:20.241Z,37.20
2018-09-04T02:33:20.176Z,39.60
2018-09-04T02:34:20.112Z,38.50
2018-09-04T02:35:20.056Z,38.30
2018-09-04T02:36:19.995Z,37.60
2018-09-04T02:37:19.935Z,34.90
2018-09-04T02:38:19.875Z,38.20
2018-09-04T02:39:19.813Z,38.80
2018-09-04T02:40:19.755Z,37.70
2018-09-04T02:41:19.692Z,39.30
2018-09-04T02:42:19.632Z,39.90
2018-09-04T02:43:19.571Z,40.30
2018-09-04T02:44:19.512Z,38.00
2018-09-04T02:45:19.448Z,40.20
2018-09-04T02:46:19.389Z,38.80
2018-09-04T02:47:19.329Z,36.50
2018-09-04T02:48:19.267Z,41.10
2018-09-04T02:49:19.206Z,37.10
2018-09-04T02:50:19.146Z,36.70
2018-09-04T02:51:19.086Z,41.80
2018-09-04T02:52:19.026Z,39.40
2018-09-04T02:53:18.965Z,36.40
2018-09-04T02:54:18.903Z,38.20
2018-09-04T02:55:18.842Z,35.20
2018-09-04T02:56:18.782Z,37.60
2018-09-04T02:57:18.721Z,37.90
2018-09-04T02:58:18.662Z,39.40
2018-09-04T02:59:18.600Z,37.30
2018-09-04T03:00:18.541Z,39.60
2018-09-04T03:01:18.478Z,41.50
2018-09-04T03:02:18.418Z,37.00
2018-09-04T03:03:18.358Z,38.20
2018-09-04T03:04:18.298Z,40.20
2018-09-04T03:05:18.236Z,42.00
2018-09-04T03:06:18.172Z,39.40
2018-09-04T03:07:18.115Z,39.90
2018-09-04T03:08:18.070Z,37.10
2018-09-04T03:09:17.999Z,36.80
2018-09-04T03:10:17.953Z,38.50
2018-09-04T03:11:17.872Z,36.40
2018-09-04T03:12:17.871Z,37.50
2018-09-04T03:13:17.813Z,34.10
2018-09-04T03:14:17.690Z,43.60
2018-09-04T03:15:17.632Z,40.00
2018-09-04T03:16:17.574Z,39.00
2018-09-04T03:17:17.554Z,38.00
2018-09-04T03:18:17.488Z,39.30
2018-09-04T03:19:17.415Z,40.20
2018-09-04T03:20:17.349Z,39.40
2018-09-04T03:21:17.288Z,37.50
2018-09-04T03:22:17.353Z,37.80
2018-09-04T03:23:17.275Z,35.60
2018-09-04T03:24:17.116Z,33.30
2018-09-04T03:25:17.053Z,34.70
2018-09-04T03:26:16.961Z,35.70
2018-09-04T03:27:16.904Z,38.10
2018-09-04T03:28:16.842Z,38.30
2018-09-04T03:29:16.779Z,35.60
2018-09-04T03:30:16.720Z,39.20
2018-09-04T03:31:16.658Z,38.10
2018-09-04T03:32:16.606Z,38.90
2018-09-04T03:33:16.537Z,41.40
2018-09-04T03:34:16.477Z,38.00
2018-09-04T03:35:16.417Z,38.60
2018-09-04T03:36:16.358Z,35.60
2018-09-04T03:37:16.294Z,39.20
2018-09-04T03:38:16.236Z,34.90
2018-09-04T03:39:16.173Z,35.60
2018-09-04T03:40:16.112Z,38.10
2018-09-04T03:41:16.052Z,36.80
2018-09-04T03:42:16.036Z,36.10
2018-09-04T03:43:15.932Z,37.20
2018-09-04T03:44:15.901Z,39.10
2018-09-04T03:45:15.818Z,38.00
2018-09-04T03:46:15.751Z,37.10
2018-09-04T03:47:15.687Z,37.40
2018-09-04T03:48:15.627Z,37.50
2018-09-04T03:49:15.567Z,36.90
2018-09-04T03:50:15.506Z,36.10
2018-09-04T03:51:15.444Z,37.50
2018-09-04T03:52:15.420Z,37.30
2018-09-04T03:53:15.324Z,38.10
2018-09-04T03:54:15.263Z,37.00
2018-09-04T03:55:15.203Z,36.40
2018-09-04T03:56:15.143Z,37.30
2018-09-04T03:57:15.083Z,36.80
2018-09-04T03:58:15.021Z,35.60
2018-09-04T03:59:14.963Z,37.50
2018-09-04T04:00:14.900Z,35.40
2018-09-04T04:01:14.843Z,33.30
2018-09-04T04:02:14.776Z,37.00
2018-09-04T04:03:14.716Z,35.30
2018-09-04T04:04:14.660Z,38.60
2018-09-04T04:05:14.590Z,38.30
2018-09-04T04:06:14.534Z,37.30
2018-09-04T04:07:14.474Z,35.40
2018-09-04T04:08:14.414Z,36.20
2018-09-04T04:09:14.355Z,40.60
2018-09-04T04:10:14.289Z,37.30
2018-09-04T04:11:14.232Z,37.80
2018-09-04T04:12:14.171Z,36.40
2018-09-04T04:13:14.106Z,35.30
2018-09-04T04:14:14.049Z,37.70
2018-09-04T04:15:13.987Z,37.90
2018-09-04T04:16:13.928Z,37.50
2018-09-04T04:17:13.867Z,33.00
2018-09-04T04:18:13.805Z,34.00
2018-09-04T04:19:13.745Z,35.50
2018-09-04T04:20:13.684Z,34.30
2018-09-04T04:21:13.624Z,35.50
2018-09-04T04:22:13.563Z,34.80
2018-09-04T04:23:13.503Z,33.00
2018-09-04T04:24:13.441Z,37.10
2018-09-04T04:25:13.383Z,34.60
2018-09-04T04:26:13.319Z,34.50
2018-09-04T04:27:13.267Z,35.70
2018-09-04T04:28:13.198Z,37.10
2018-09-04T04:29:13.135Z,35.80
2018-09-04T04:30:13.077Z,36.20
2018-09-04T04:31:13.016Z,35.50
2018-09-04T04:32:12.960Z,35.00
2018-09-04T04:33:12.912Z,37.10
2018-09-04T04:34:12.836Z,37.20
2018-09-04T04:35:12.774Z,36.60
2018-09-04T04:36:12.712Z,38.10
2018-09-04T04:37:12.651Z,35.80
2018-09-04T04:38:12.592Z,35.30
2018-09-04T04:39:12.530Z,37.30
2018-09-04T04:40:12.624Z,34.60
2018-09-04T04:41:12.408Z,38.10
2018-09-04T04:42:12.347Z,34.30
2018-09-04T04:43:12.287Z,37.20
2018-09-04T04:44:12.227Z,37.60
2018-09-04T04:45:12.165Z,37.40
2018-09-04T04:46:12.105Z,34.20
2018-09-04T04:47:12.047Z,35.80
2018-09-04T04:48:11.987Z,39.00
2018-09-04T04:49:11.925Z,36.70
2018-09-04T04:50:11.862Z,36.10
2018-09-04T04:51:11.801Z,38.70
2018-09-04T04:52:11.741Z,37.50
2018-09-04T04:53:11.678Z,37.70
2018-09-04T04:54:11.619Z,35.00
2018-09-04T04:55:11.560Z,36.50
2018-09-04T04:56:11.503Z,37.40
2018-09-04T04:57:11.437Z,34.90
2018-09-04T04:58:11.412Z,34.60
2018-09-04T04:59:11.317Z,38.50
2018-09-04T05:00:11.269Z,37.00
2018-09-04T05:01:11.193Z,37.20
2018-09-04T05:02:11.134Z,39.70
2018-09-04T05:03:11.112Z,37.40
2018-09-04T05:04:11.013Z,38.70
2018-09-04T05:05:10.950Z,39.20
2018-09-04T05:06:10.891Z,37.70
2018-09-04T05:07:10.833Z,38.10
2018-09-04T05:08:10.771Z,39.00
2018-09-04T05:09:10.707Z,35.40
2018-09-04T05:10:10.647Z,37.80
2018-09-04T05:11:10.679Z,37.40
2018-09-04T05:12:10.533Z,34.50
2018-09-04T05:13:10.471Z,38.80
2018-09-04T05:14:10.404Z,36.70
2018-09-04T05:15:10.342Z,37.10
2018-09-04T05:16:10.284Z,36.80
2018-09-04T05:17:10.222Z,36.00
2018-09-04T05:18:10.162Z,37.80
2018-09-04T05:19:10.098Z,36.60
2018-09-04T05:20:10.038Z,38.10
2018-09-04T05:21:09.983Z,35.40
2018-09-04T05:22:09.919Z,41.90
2018-09-04T05:23:09.858Z,39.20
2018-09-04T05:24:09.798Z,38.70
2018-09-04T05:25:09.734Z,40.20
2018-09-04T05:26:09.675Z,36.30
2018-09-04T05:27:09.614Z,36.50
2018-09-04T05:28:09.552Z,37.00
2018-09-04T05:29:09.494Z,37.80
2018-09-04T05:30:09.431Z,40.20
2018-09-04T05:31:09.371Z,36.70
2018-09-04T05:32:09.316Z,39.50
2018-09-04T05:33:09.250Z,38.00
2018-09-04T05:34:09.189Z,37.40
2018-09-04T05:35:09.129Z,42.20
2018-09-04T05:36:09.068Z,37.90
2018-09-04T05:37:09.010Z,40.00
2018-09-04T05:38:08.947Z,37.70
2018-09-04T05:39:08.886Z,37.40
2018-09-04T05:40:08.823Z,37.70
2018-09-04T05:41:08.763Z,39.00
2018-09-04T05:42:08.704Z,37.90
2018-09-04T05:43:08.643Z,37.50
2018-09-04T05:44:08.582Z,39.00
2018-09-04T05:45:08.533Z,36.80
2018-09-04T05:46:08.463Z,38.30
2018-09-04T05:47:08.401Z,39.40
2018-09-04T05:48:08.344Z,40.20
2018-09-04T05:49:08.279Z,39.30
2018-09-04T05:50:08.217Z,39.90
2018-09-04T05:51:08.158Z,36.50
2018-09-04T05:52:08.102Z,35.40
2018-09-04T05:53:08.036Z,37.50
2018-09-04T05:54:07.974Z,40.60
2018-09-04T05:55:07.972Z,40.70
2018-09-04T05:56:07.857Z,36.70
2018-09-04T05:57:07.791Z,39.10
2018-09-04T05:58:07.736Z,36.20
2018-09-04T05:59:07.671Z,37.70
2018-09-04T06:00:07.612Z,43.90
2018-09-04T06:01:07.551Z,38.70
2018-09-04T06:02:07.490Z,38.60
2018-09-04T06:03:07.433Z,40.10
2018-09-04T06:04:07.372Z,37.90
2018-09-04T06:05:07.313Z,38.90
2018-09-04T06:06:07.248Z,41.70
2018-09-04T06:07:07.190Z,39.50
2018-09-04T06:08:07.129Z,41.50
2018-09-04T06:09:07.065Z,41.70
2018-09-04T06:10:07.006Z,42.60
2018-09-04T06:11:06.944Z,43.50
2018-09-04T06:12:06.883Z,40.40
2018-09-04T06:13:06.825Z,42.50
2018-09-04T06:14:06.762Z,45.10
2018-09-04T06:15:06.712Z,42.50
2018-09-04T06:16:06.642Z,46.00
2018-09-04T06:17:06.580Z,47.90
2018-09-04T06:18:06.521Z,44.20
2018-09-04T06:19:06.457Z,40.40
2018-09-04T06:20:06.424Z,43.70
2018-09-04T06:21:06.337Z,49.40
2018-09-04T06:22:06.277Z,47.30
2018-09-04T06:23:06.217Z,47.60
2018-09-04T06:24:06.157Z,45.40
2018-09-04T06:25:06.097Z,45.30
2018-09-04T06:26:06.034Z,41.90
2018-09-04T06:27:05.972Z,45.50
2018-09-04T06:28:05.913Z,47.80
2018-09-04T06:29:05.855Z,45.90
2018-09-04T06:30:05.787Z,42.60
2018-09-04T06:31:05.731Z,45.10
2018-09-04T06:32:05.678Z,47.90
2018-09-04T06:33:05.711Z,42.50
2018-09-04T06:34:05.556Z,43.60
2018-09-04T06:35:05.492Z,49.50
2018-09-04T06:36:05.430Z,47.50
2018-09-04T06:37:05.367Z,46.30
2018-09-04T06:38:05.305Z,48.70
2018-09-04T06:39:05.250Z,47.00
2018-09-04T06:40:05.189Z,49.70
2018-09-04T06:41:05.125Z,46.70
2018-09-04T06:42:05.062Z,48.50
2018-09-04T06:43:05.005Z,48.80
2018-09-04T06:44:04.944Z,52.70
2018-09-04T06:45:04.886Z,53.70
2018-09-04T06:46:04.824Z,48.60
2018-09-04T06:47:04.759Z,53.00
2018-09-04T06:48:04.701Z,54.80
2018-09-04T06:49:04.638Z,59.80
2018-09-04T06:50:04.577Z,57.10
2018-09-04T06:51:04.517Z,56.60
2018-09-04T06:52:04.456Z,50.00
2018-09-04T06:53:04.397Z,54.70
2018-09-04T06:54:04.333Z,54.30
2018-09-04T06:55:04.273Z,50.20
2018-09-04T06:56:04.214Z,54.60
2018-09-04T06:57:04.152Z,51.20
2018-09-04T06:58:04.090Z,51.20
2018-09-04T06:59:04.030Z,52.80
2018-09-04T07:00:03.968Z,55.30
2018-09-04T07:01:03.907Z,53.30
2018-09-04T07:02:03.849Z,54.90
2018-09-04T07:03:03.786Z,54.00
2018-09-04T07:04:03.735Z,54.70
2018-09-04T07:05:03.664Z,54.40
2018-09-04T07:06:03.665Z,56.10
2018-09-04T07:07:03.544Z,51.00
2018-09-04T07:08:03.485Z,51.60
2018-09-04T07:09:03.422Z,52.80
2018-09-04T07:10:03.361Z,51.00
2018-09-04T07:11:03.302Z,54.40
2018-09-04T07:12:03.239Z,53.10
2018-09-04T07:13:03.179Z,48.60
2018-09-04T07:14:03.117Z,51.00
2018-09-04T07:15:03.103Z,52.30
2018-09-04T07:16:02.995Z,52.80
2018-09-04T07:17:02.979Z,56.10
2018-09-04T07:18:02.871Z,55.50
2018-09-04T07:19:02.819Z,55.00
2018-09-04T07:20:02.756Z,54.50
2018-09-04T07:21:02.693Z,50.40
2018-09-04T07:22:02.629Z,51.20
2018-09-04T07:23:02.572Z,49.30
2018-09-04T07:24:02.588Z,53.10
2018-09-04T07:25:02.445Z,48.10
2018-09-04T07:26:02.390Z,50.00
2018-09-04T07:27:02.326Z,52.40
2018-09-04T07:28:02.267Z,52.70
2018-09-04T07:29:02.205Z,53.50
2018-09-04T07:30:02.143Z,51.70
2018-09-04T07:31:02.082Z,52.90
2018-09-04T07:32:02.023Z,49.70
2018-09-04T07:33:01.956Z,52.60
2018-09-04T07:34:01.901Z,43.10
2018-09-04T07:35:01.835Z,49.50
2018-09-04T07:36:01.778Z,51.00
2018-09-04T07:37:01.714Z,48.00
2018-09-04T07:38:01.649Z,54.80
2018-09-04T07:39:01.592Z,52.00
2018-09-04T07:40:01.533Z,52.20
2018-09-04T07:41:01.497Z,53.70
2018-09-04T07:42:01.511Z,50.80
2018-09-04T07:43:01.349Z,54.20
2018-09-04T07:44:01.288Z,50.40
2018-09-04T07:45:01.228Z,49.90
2018-09-04T07:46:01.165Z,50.90
2018-09-04T07:47:01.107Z,53.60
2018-09-04T07:48:01.043Z,53.00
2018-09-04T07:49:00.983Z,51.00
2018-09-04T07:50:00.920Z,53.40
2018-09-04T07:51:00.861Z,53.20
2018-09-04T07:52:00.800Z,54.40
2018-09-04T07:53:00.738Z,53.50
2018-09-04T07:54:00.679Z,48.70
2018-09-04T07:55:00.617Z,52.30
2018-09-04T07:56:00.562Z,50.80
2018-09-04T07:57:00.494Z,52.80
2018-09-04T07:58:00.434Z,54.90
2018-09-04T07:59:00.372Z,51.50
2018-09-04T08:00:00.315Z,50.10
2018-09-04T08:01:00.281Z,50.10
2018-09-04T08:02:00.191Z,54.60
2018-09-04T08:03:00.153Z,54.00
2018-09-04T08:04:00.072Z,57.30
2018-09-04T08:05:00.007Z,56.50
2018-09-04T08:05:59.946Z,56.10
2018-09-04T08:06:59.886Z,48.70
2018-09-04T08:07:59.826Z,50.00
2018-09-04T08:08:59.763Z,55.10
2018-09-04T08:09:59.741Z,56.70
2018-09-04T08:10:59.646Z,49.60
2018-09-04T08:11:59.582Z,50.50
2018-09-04T08:12:59.518Z,50.90
2018-09-04T08:13:59.458Z,53.20
2018-09-04T08:14:59.399Z,52.70
2018-09-04T08:15:59.338Z,48.60
2018-09-04T08:16:59.275Z,54.10
2018-09-04T08:17:59.217Z,52.40
2018-09-04T08:18:59.159Z,50.70
2018-09-04T08:19:59.094Z,44.00
2018-09-04T08:20:59.062Z,52.60
2018-09-04T08:21:58.973Z,49.40
2018-09-04T08:22:58.920Z,49.70
2018-09-04T08:23:58.851Z,52.40
2018-09-04T08:24:58.791Z,45.40
2018-09-04T08:25:58.782Z,51.80
2018-09-04T08:26:58.667Z,51.30
2018-09-04T08:27:58.609Z,46.80
2018-09-04T08:28:58.546Z,47.50
2018-09-04T08:29:58.485Z,43.80
2018-09-04T08:30:58.425Z,49.20
2018-09-04T08:31:58.364Z,45.10
2018-09-04T08:32:58.375Z,47.60
2018-09-04T08:33:58.241Z,48.80
2018-09-04T08:34:58.183Z,45.00
2018-09-04T08:35:58.120Z,50.00
2018-09-04T08:36:58.059Z,53.40
2018-09-04T08:37:57.999Z,46.60
2018-09-04T08:38:57.938Z,45.00
2018-09-04T08:39:57.899Z,47.60
2018-09-04T08:40:57.818Z,52.80
2018-09-04T08:41:57.754Z,54.70
2018-09-04T08:42:57.704Z,54.70
2018-09-04T08:43:57.636Z,56.00
2018-09-04T08:44:57.571Z,51.40
2018-09-04T08:45:57.512Z,50.60
2018-09-04T08:46:57.452Z,48.60
2018-09-04T08:47:57.392Z,50.60
2018-09-04T08:48:57.332Z,53.90
2018-09-04T08:49:57.268Z,59.50
2018-09-04T08:50:57.207Z,52.50
2018-09-04T08:51:57.147Z,53.10
2018-09-04T08:52:57.086Z,52.50
2018-09-04T08:53:57.025Z,54.90
2018-09-04T08:54:56.963Z,55.60
2018-09-04T08:55:56.905Z,52.60
2018-09-04T08:56:56.848Z,51.90
2018-09-04T08:57:56.780Z,56.50
2018-09-04T08:58:56.721Z,55.70
2018-09-04T08:59:56.662Z,55.40
2018-09-04T09:00:56.598Z,55.90
2018-09-04T09:01:56.538Z,57.90
2018-09-04T09:02:56.476Z,52.50
2018-09-04T09:03:56.416Z,54.50
2018-09-04T09:04:56.354Z,48.40
2018-09-04T09:05:56.348Z,48.10
2018-09-04T09:06:56.243Z,42.30
2018-09-04T09:07:56.171Z,43.90
2018-09-04T09:08:56.110Z,46.80
2018-09-04T09:09:56.090Z,47.10
2018-09-04T09:10:55.986Z,43.60
2018-09-04T09:11:55.925Z,46.40
2018-09-04T09:12:55.864Z,41.60
2018-09-04T09:13:55.803Z,40.90
2018-09-04T09:14:55.746Z,42.70
2018-09-04T09:15:55.680Z,41.50
2018-09-04T09:16:55.621Z,43.50
2018-09-04T09:17:55.575Z,45.50
2018-09-04T09:18:55.492Z,46.80
2018-09-04T09:19:55.437Z,42.00
2018-09-04T09:20:55.376Z,42.00
2018-09-04T09:21:55.315Z,37.10
2018-09-04T09:22:55.355Z,41.00
2018-09-04T09:23:55.192Z,41.60
2018-09-04T09:24:55.131Z,36.80
2018-09-04T09:25:55.071Z,39.70
2018-09-04T09:26:55.010Z,34.20
2018-09-04T09:27:54.952Z,35.60
2018-09-04T09:28:54.889Z,35.50
2018-09-04T09:29:54.825Z,32.80
2018-09-04T09:30:54.765Z,34.50
2018-09-04T09:31:54.703Z,35.70
2018-09-04T09:32:54.642Z,34.30
2018-09-04T09:33:54.582Z,29.10
2018-09-04T09:34:54.534Z,34.70
2018-09-04T09:35:54.462Z,34.20
2018-09-04T09:36:54.426Z,32.20
2018-09-04T09:37:54.341Z,28.60
2018-09-04T09:38:54.281Z,33.20
2018-09-04T09:39:54.215Z,31.70
2018-09-04T09:40:54.153Z,32.60
2018-09-04T09:41:54.099Z,33.20
2018-09-04T09:42:54.036Z,28.20
2018-09-04T09:43:53.975Z,27.10
2018-09-04T09:44:53.915Z,25.90
2018-09-04T09:45:53.854Z,27.00
2018-09-04T09:46:53.793Z,27.40
2018-09-04T09:47:53.729Z,30.70
2018-09-04T09:48:53.673Z,28.60
2018-09-04T09:49:53.614Z,27.30
2018-09-04T09:50:53.554Z,29.80
2018-09-04T09:51:53.491Z,26.60
2018-09-04T09:52:53.461Z,26.20
2018-09-04T09:53:53.389Z,26.40
2018-09-04T09:54:53.309Z,26.50
2018-09-04T09:55:53.271Z,28.80
2018-09-04T09:56:53.188Z,27.00
2018-09-04T09:57:53.129Z,27.40
2018-09-04T09:58:53.067Z,26.90
2018-09-04T09:59:53.066Z,27.80
2018-09-04T10:00:53.093Z,29.70
2018-09-04T10:01:52.886Z,27.80
2018-09-04T10:02:52.829Z,27.00
2018-09-04T10:03:52.775Z,25.50
2018-09-04T10:04:52.704Z,30.10
2018-09-04T10:05:52.644Z,31.60
2018-09-04T10:06:52.582Z,26.40
2018-09-04T10:07:52.727Z,27.70
2018-09-04T10:08:52.464Z,28.40
2018-09-04T10:09:52.418Z,29.70
2018-09-04T10:10:52.340Z,28.80
2018-09-04T10:11:52.285Z,29.90
2018-09-04T10:12:52.225Z,29.00
2018-09-04T10:13:52.162Z,28.70
2018-09-04T10:14:52.099Z,28.00
2018-09-04T10:15:52.042Z,25.90
2018-09-04T10:16:51.982Z,29.10
2018-09-04T10:17:51.921Z,29.90
2018-09-04T10:18:51.862Z,28.60
2018-09-04T10:19:51.865Z,30.90
2018-09-04T10:20:51.738Z,32.60
2018-09-04T10:21:51.680Z,27.20
2018-09-04T10:22:51.622Z,34.40
2018-09-04T10:23:51.562Z,34.10
2018-09-04T10:24:51.498Z,32.00
2018-09-04T10:25:51.438Z,34.00
2018-09-04T10:26:51.386Z,33.10
2018-09-04T10:27:51.319Z,30.10
2018-09-04T10:28:51.262Z,32.20
2018-09-04T10:29:51.194Z,32.50
2018-09-04T10:30:51.139Z,33.50
2018-09-04T10:31:51.077Z,31.80
2018-09-04T10:32:51.019Z,32.40
2018-09-04T10:33:50.957Z,33.30
2018-09-04T10:34:50.892Z,33.90
2018-09-04T10:35:50.839Z,32.30
2018-09-04T10:36:50.776Z,34.30
2018-09-04T10:37:50.722Z,32.70
2018-09-04T10:38:50.665Z,30.60
2018-09-04T10:39:50.637Z,32.50
2018-09-04T10:40:50.541Z,31.50
2018-09-04T10:41:50.544Z,34.60
2018-09-04T10:42:50.476Z,35.00
2018-09-04T10:43:50.355Z,34.80
2018-09-04T10:44:50.295Z,34.20
2018-09-04T10:45:50.234Z,35.30
2018-09-04T10:46:50.176Z,34.70
2018-09-04T10:47:50.119Z,38.50
2018-09-04T10:48:50.053Z,36.30
2018-09-04T10:49:49.991Z,35.60
2018-09-04T10:50:49.931Z,34.40
2018-09-04T10:51:49.873Z,36.00
2018-09-04T10:52:49.812Z,32.00
2018-09-04T10:53:49.754Z,33.80
2018-09-04T10:54:49.691Z,33.10
2018-09-04T10:55:49.656Z,36.00
2018-09-04T10:56:49.574Z,36.20
2018-09-04T10:57:49.577Z,34.80
2018-09-04T10:58:49.453Z,34.60
2018-09-04T10:59:49.394Z,36.40
2018-09-04T11:00:49.329Z,32.40
2018-09-04T11:01:49.274Z,34.00
2018-09-04T11:02:49.212Z,34.20
2018-09-04T11:03:49.152Z,37.80
2018-09-04T11:04:49.091Z,33.10
2018-09-04T11:05:49.031Z,32.00
2018-09-04T11:06:48.970Z,33.60
2018-09-04T11:07:48.911Z,31.10
2018-09-04T11:08:48.849Z,33.90
2018-09-04T11:09:48.989Z,34.00
2018-09-04T11:10:48.730Z,32.30
2018-09-04T11:11:48.675Z,31.40
2018-09-04T11:12:48.607Z,31.80
2018-09-04T11:13:48.550Z,33.50
2018-09-04T11:14:48.492Z,34.90
2018-09-04T11:15:48.430Z,33.40
2018-09-04T11:16:48.375Z,31.80
2018-09-04T11:17:48.310Z,34.80
2018-09-04T11:18:48.251Z,32.50
2018-09-04T11:19:48.189Z,30.40
2018-09-04T11:20:48.129Z,32.60
2018-09-04T11:21:48.071Z,34.60
2018-09-04T11:22:48.010Z,35.90
2018-09-04T11:23:48.065Z,33.50
2018-09-04T11:24:47.890Z,33.00
2018-09-04T11:25:47.829Z,31.10
2018-09-04T11:26:47.770Z,30.40
2018-09-04T11:27:47.711Z,34.80
2018-09-04T11:28:47.653Z,35.70
2018-09-04T11:29:47.590Z,30.30
2018-09-04T11:30:47.608Z,32.40
2018-09-04T11:31:47.474Z,28.60
2018-09-04T11:32:47.416Z,30.10
2018-09-04T11:33:47.349Z,34.00
2018-09-04T11:34:47.291Z,30.70
2018-09-04T11:35:47.233Z,34.50
2018-09-04T11:36:47.175Z,33.30
2018-09-04T11:37:47.113Z,33.40
2018-09-04T11:38:47.055Z,34.20
2018-09-04T11:39:46.993Z,34.60
2018-09-04T11:40:47.028Z,33.00
2018-09-04T11:41:46.878Z,32.50
2018-09-04T11:42:46.817Z,34.10
2018-09-04T11:43:46.755Z,30.60
2018-09-04T11:44:46.695Z,31.00
2018-09-04T11:45:46.636Z,30.80
2018-09-04T11:46:46.590Z,32.50
2018-09-04T11:47:46.516Z,30.30
2018-09-04T11:48:46.456Z,28.50
2018-09-04T11:49:46.395Z,33.20
2018-09-04T11:50:46.337Z,31.60
2018-09-04T11:51:46.280Z,31.50
2018-09-04T11:52:46.220Z,31.70
2018-09-04T11:53:46.161Z,30.00
2018-09-04T11:54:46.098Z,30.40
2018-09-04T11:55:46.060Z,31.10
2018-09-04T11:56:45.978Z,31.80
2018-09-04T11:57:45.923Z,30.90
2018-09-04T11:58:45.862Z,31.20
2018-09-04T11:59:45.918Z,31.10
2018-09-04T12:00:45.742Z,33.00
2018-09-04T12:01:45.683Z,31.30
2018-09-04T12:02:45.623Z,31.80
2018-09-04T12:03:45.564Z,30.20
2018-09-04T12:04:45.505Z,29.50
2018-09-04T12:05:45.570Z,30.70
2018-09-04T12:06:45.417Z,32.00
2018-09-04T12:07:45.326Z,29.40
2018-09-04T12:08:45.269Z,33.80
2018-09-04T12:09:45.207Z,29.80
2018-09-04T12:10:45.159Z,30.60
2018-09-04T12:11:45.093Z,30.40
2018-09-04T12:12:45.071Z,31.30
2018-09-04T12:13:44.970Z,30.30
2018-09-04T12:14:44.911Z,28.00
2018-09-04T12:15:44.853Z,31.90
2018-09-04T12:16:44.791Z,29.50
2018-09-04T12:17:44.734Z,30.20
2018-09-04T12:18:44.675Z,29.10
2018-09-04T12:19:44.616Z,32.30
2018-09-04T12:20:44.608Z,28.10
2018-09-04T12:21:44.500Z,29.40
2018-09-04T12:22:44.439Z,33.60
2018-09-04T12:23:44.380Z,31.00
2018-09-04T12:24:44.367Z,29.10
2018-09-04T12:25:44.261Z,30.70
2018-09-04T12:26:44.202Z,33.60
2018-09-04T12:27:44.145Z,33.20
2018-09-04T12:28:44.083Z,34.20
2018-09-04T12:29:44.025Z,31.10
2018-09-04T12:30:43.966Z,32.10
2018-09-04T12:31:43.907Z,31.90
2018-09-04T12:32:43.848Z,32.60
2018-09-04T12:33:43.792Z,29.90
2018-09-04T12:34:43.734Z,31.80
2018-09-04T12:35:43.674Z,29.00
2018-09-04T12:36:43.613Z,30.20
2018-09-04T12:37:43.553Z,29.00
2018-09-04T12:38:43.496Z,27.40
2018-09-04T12:39:43.436Z,29.80
2018-09-04T12:40:43.377Z,29.70
2018-09-04T12:41:43.321Z,29.30
2018-09-04T12:42:43.266Z,30.60
2018-09-04T12:43:43.202Z,31.50
2018-09-04T12:44:43.144Z,31.50
2018-09-04T12:45:43.086Z,30.80
2018-09-04T12:46:43.027Z,29.30
2018-09-04T12:47:42.968Z,31.90
2018-09-04T12:48:42.931Z,32.10
2018-09-04T12:49:42.854Z,31.90
2018-09-04T12:50:42.792Z,31.90
2018-09-04T12:51:42.736Z,32.80